Date,TemperatureHighF,TemperatureAvgF,TemperatureLowF,DewpointHighF,DewpointAvgF,DewpointLowF,HumidityHigh,HumidityAvg,HumidityLow,PressureMaxIn,PressureMinIn,WindSpeedMaxMPH,WindSpeedAvgMPH,GustSpeedMaxMPH,PrecipitationSumIn
2014-1-1,53.5,40.3,23.1,44.5,32.8,21.4,94,77,50,30.09,29.72,11,1,12,0.03
2014-1-2,50.1,34.8,23.9,48.4,28.3,14.1,94,77,64,30.22,29.66,13,2,15,0.21
2014-1-3,34.4,26.4,18.2,16.3,14.4,12.5,89,62,41,30.30,30.01,9,0,9,0.00
2014-1-4,49.2,38.8,25.6,40.5,24.3,16.0,77,57,35,30.03,29.75,19,4,19,0.00
2014-1-5,51.3,39.0,18.4,49.6,34.4,8.2,94,84,65,30.09,29.45,19,5,19,0.24
2014-1-6,18.4,13.2,8.3,8.4,1.7,-3.5,81,60,47,30.38,30.08,14,2,14,0.00
2014-1-7,27.7,17.6,5.6,11.3,5.4,-2.5,82,59,42,30.39,30.19,12,1,14,0.00
2014-1-8,42.6,31.7,17.4,30.6,18.2,10.4,91,60,34,30.26,30.12,7,0,8,0.03
2014-1-9,44.7,36.2,32.2,40.2,32.9,29.0,93,88,71,30.19,29.95,6,0,6,0.49
2014-1-10,58.1,50.3,43.1,54.5,47.3,39.8,95,89,80,29.96,29.43,14,3,17,0.87
2014-1-11,56.7,46.8,33.4,55.0,42.2,31.8,95,85,67,29.80,29.45,8,0,11,0.08
2014-1-12,61.6,46.6,27.4,40.7,33.2,26.1,95,65,34,29.90,29.67,16,3,17,0.01
2014-1-13,57.4,50.1,38.0,52.7,46.9,36.4,95,90,49,29.72,29.54,24,2,24,0.89
2014-1-14,59.6,45.1,30.1,43.8,34.9,22.0,95,71,40,29.89,29.69,10,1,13,0.01
2014-1-15,43.9,31.6,21.3,23.6,19.1,14.7,89,61,41,30.00,29.88,13,1,13,0.00
2014-1-16,53.2,37.9,21.7,36.3,27.1,18.5,95,67,46,29.90,29.62,15,1,15,0.00
2014-1-17,38.0,32.2,20.4,27.3,19.7,14.0,93,62,39,29.97,29.68,9,1,15,0.00
2014-1-18,53.9,38.2,18.0,33.2,23.8,15.6,92,60,34,29.96,29.60,22,1,22,0.00
2014-1-19,49.2,40.5,31.1,30.8,27.5,23.5,82,61,43,29.99,29.72,10,0,12,0.00
2014-1-20,64.1,45.9,30.1,38.7,32.8,26.2,88,64,33,29.78,29.63,9,0,14,0.00
2014-1-21,48.6,31.0,17.9,37.4,19.1,11.0,78,61,54,30.05,29.69,20,2,21,0.00
2014-1-22,37.8,24.8,13.7,19.9,15.5,10.8,92,70,44,30.02,29.88,9,0,9,0.00
2014-1-23,30.0,22.7,15.1,22.0,8.8,-0.2,89,56,39,30.53,30.01,10,1,16,0.00
2014-1-24,31.6,20.5,5.5,9.2,3.7,-0.8,89,51,26,30.53,29.91,13,0,13,0.00
2014-1-25,51.5,36.5,26.5,28.8,20.6,8.6,86,54,39,29.92,29.70,10,0,11,0.00
2014-1-26,63.6,44.4,23.8,39.3,32.1,21.6,93,66,38,29.75,29.52,10,1,14,0.00
2014-1-27,49.2,29.9,21.0,38.2,10.9,0.0,92,46,28,30.15,29.59,17,2,20,0.00
2014-1-28,23.2,17.3,8.6,8.3,1.1,-4.0,78,50,30,30.25,30.13,16,1,16,0.00
2014-1-29,33.7,18.9,5.1,10.8,6.3,1.6,90,62,32,30.25,30.07,6,0,6,0.00
2014-1-30,45.0,29.0,14.0,17.0,10.2,5.5,82,50,20,30.07,29.78,19,2,20,0.00
2014-1-31,58.6,48.9,37.8,45.4,33.8,12.6,73,56,35,29.88,29.72,14,2,14,0.00
2014-2-1,68.2,59.9,52.1,54.7,48.7,36.8,76,67,55,29.77,29.65,18,4,23,0.00
2014-2-2,62.3,36.9,30.1,55.7,34.9,28.5,94,92,75,29.92,29.66,14,2,14,1.87
2014-2-3,30.1,28.4,26.1,28.6,26.6,24.4,100,93,92,30.09,29.88,8,0,8,0.00
2014-2-4,34.4,32.3,29.5,33.1,30.9,28.0,95,95,94,29.98,29.60,10,0,11,2.08
2014-2-5,35.1,30.3,27.5,32.9,26.5,21.6,95,86,77,30.25,29.73,14,1,15,0.00
2014-2-6,27.5,23.2,20.4,22.7,18.9,16.6,92,84,80,30.32,30.20,13,1,13,0.00
2014-2-7,28.2,24.2,19.7,22.1,19.6,16.4,92,82,75,30.24,30.07,6,0,7,0.00
2014-2-8,36.6,31.7,26.5,33.7,29.6,22.4,94,92,82,30.07,29.90,5,0,6,0.03
2014-2-9,38.7,35.4,32.9,34.0,32.5,30.6,95,89,78,29.98,29.89,7,0,9,0.01
2014-2-10,35.3,30.3,26.2,30.6,23.5,16.6,91,76,55,30.09,29.96,14,2,14,0.00
2014-2-11,34.8,26.9,19.1,19.8,16.1,12.0,89,64,46,30.17,29.98,12,1,13,0.01
2014-2-12,34.4,30.7,27.3,29.8,25.1,18.2,89,80,64,30.00,29.74,7,0,7,0.00
2014-2-13,50.0,36.0,20.6,32.4,26.3,18.9,94,71,30,29.80,29.65,8,0,9,0.00
2014-2-14,51.7,39.9,29.5,44.4,36.1,26.9,94,87,71,29.84,29.44,16,1,18,0.29
2014-2-15,44.7,34.2,23.0,32.1,26.2,20.1,92,73,48,30.01,29.81,8,0,9,0.00
2014-2-16,59.0,44.3,27.8,37.7,33.3,26.0,94,69,38,29.94,29.82,7,0,7,0.00
2014-2-17,68.0,52.7,38.8,60.4,45.0,34.5,90,76,48,29.92,29.67,14,1,16,0.00
2014-2-18,70.7,54.0,29.0,61.2,45.8,27.5,95,76,47,29.92,29.66,16,3,16,0.00
2014-2-19,67.6,62.9,58.2,61.0,58.4,52.7,95,86,63,29.81,29.60,10,1,10,0.13
2014-2-20,73.5,63.9,45.0,64.4,57.1,34.2,93,79,58,29.77,29.40,23,5,35,0.09
2014-2-21,58.2,43.9,30.7,38.3,28.6,21.0,94,61,24,29.90,29.76,9,0,9,0.00
2014-2-22,66.3,48.7,29.0,37.0,31.6,27.2,94,58,24,29.89,29.71,13,1,14,0.00
2014-2-23,64.6,49.4,37.7,45.7,38.5,27.6,90,68,46,29.98,29.73,14,1,14,0.00
2014-2-24,50.7,41.8,31.1,28.4,23.5,20.4,70,50,32,30.07,29.87,15,1,15,0.00
2014-2-25,53.5,44.5,36.7,34.3,29.7,24.9,86,58,38,29.95,29.83,11,1,23,0.11
2014-2-26,36.7,29.0,18.9,27.4,15.7,8.7,84,59,36,30.01,29.85,13,1,16,0.00
2014-2-27,47.2,31.2,16.3,23.5,17.4,13.5,93,62,26,29.90,29.79,9,0,9,0.00
2014-2-28,54.5,42.0,29.6,42.6,26.5,17.7,90,56,28,29.86,29.73,11,2,13,0.05
2014-3-1,69.3,58.0,45.4,57.0,48.5,38.4,83,71,57,29.91,29.79,13,1,13,0.00
2014-3-2,63.9,44.2,32.4,60.6,41.4,30.9,94,90,72,29.92,29.75,18,1,18,2.32
2014-3-3,32.8,19.6,14.8,31.3,16.4,11.4,94,87,84,30.17,29.76,4,0,6,0.00
2014-3-4,33.4,26.7,19.2,28.4,23.1,16.7,94,86,78,30.10,29.91,6,0,6,0.01
2014-3-5,41.1,34.3,29.3,36.7,32.2,27.8,95,92,82,29.99,29.88,8,0,9,0.00
2014-3-6,41.5,35.7,28.8,36.5,32.5,26.8,95,88,76,29.92,29.81,5,0,6,0.00
2014-3-7,60.1,42.6,25.5,44.7,35.8,24.0,100,79,53,29.86,29.75,8,0,9,0.00
2014-3-8,64.6,50.4,32.5,50.6,42.5,31.0,95,76,54,30.00,29.80,8,0,9,0.00
2014-3-9,54.0,46.2,37.5,43.2,40.0,35.1,92,79,64,30.08,29.93,7,0,10,0.01
2014-3-10,66.8,50.4,32.7,51.5,43.4,31.2,95,79,53,29.94,29.66,10,0,16,0.00
2014-3-11,77.2,61.0,42.4,61.4,53.3,40.6,95,78,52,29.66,29.38,14,1,17,0.00
2014-3-12,65.1,50.4,32.6,61.1,39.0,25.3,92,67,38,29.94,29.34,19,2,22,0.00
2014-3-13,63.4,47.4,27.6,38.1,31.6,25.6,94,60,31,30.02,29.90,10,0,10,0.00
2014-3-14,65.7,53.8,42.3,44.8,37.6,32.7,82,56,34,29.93,29.81,16,1,17,0.01
2014-3-15,67.7,55.4,40.1,54.8,47.5,38.1,97,76,58,29.85,29.64,11,1,12,0.02
2014-3-16,59.8,50.9,36.4,58.4,49.0,34.6,95,93,89,29.64,29.37,16,1,19,0.55
2014-3-17,46.5,38.7,33.2,37.4,33.3,28.4,93,81,67,29.67,29.56,10,1,10,0.00
2014-3-18,61.0,46.0,30.1,45.8,38.9,28.6,95,78,55,29.71,29.50,17,4,18,0.00
2014-3-19,62.6,55.0,41.0,52.9,44.4,37.1,88,69,50,29.93,29.62,12,2,15,0.00
2014-3-20,66.0,49.8,32.9,40.9,34.1,30.1,94,61,27,29.99,29.82,7,0,7,0.00
2014-3-21,72.3,53.7,33.1,45.5,38.3,31.0,93,62,32,29.86,29.66,15,1,15,0.00
2014-3-22,67.4,57.6,46.8,50.7,45.0,39.5,93,65,43,29.91,29.71,13,1,15,0.21
2014-3-23,52.8,46.0,40.9,41.9,34.2,26.9,91,65,39,30.08,29.86,17,2,18,0.16
2014-3-24,55.1,44.9,33.7,28.2,23.4,18.5,69,45,24,30.06,29.82,10,1,10,0.00
2014-3-25,49.7,41.8,29.8,31.9,25.4,19.5,82,54,33,30.06,29.87,18,2,18,0.00
2014-3-26,56.9,42.6,25.0,30.0,24.1,21.0,92,53,26,30.15,29.90,11,1,13,0.00
2014-3-27,68.3,57.0,48.6,58.7,44.1,27.9,94,64,41,29.90,29.53,22,6,23,0.65
2014-3-28,72.2,64.0,59.0,64.7,60.4,57.3,94,88,73,29.73,29.60,16,2,20,0.76
2014-3-29,60.1,50.6,39.3,58.4,45.8,36.9,95,84,64,30.02,29.62,14,2,15,0.22
2014-3-30,64.5,47.4,32.2,44.3,37.6,30.7,95,73,35,30.08,29.89,8,0,8,0.01
2014-3-31,75.3,58.0,37.2,50.1,41.3,35.6,95,60,27,29.90,29.66,14,2,17,0.00
2014-4-1,76.8,64.4,50.2,61.1,54.3,46.2,91,71,51,29.85,29.74,13,0,14,0.00
2014-4-2,79.6,69.0,57.4,67.2,62.4,54.9,94,80,64,29.80,29.66,17,2,18,0.00
2014-4-3,83.1,74.9,68.3,69.0,65.6,63.1,92,74,54,29.66,29.50,22,3,23,0.01
2014-4-4,74.8,58.7,46.9,67.3,49.3,36.8,94,72,52,29.89,29.39,29,2,29,0.83
2014-4-5,56.7,49.7,39.8,41.4,37.5,33.9,83,64,49,29.97,29.84,8,0,11,0.00
2014-4-6,60.4,51.2,42.3,50.3,42.4,37.4,94,74,45,29.86,29.48,9,0,12,0.70
2014-4-7,52.3,49.2,40.2,50.4,46.3,38.6,99,90,77,29.66,29.29,9,1,14,0.05
2014-4-8,61.6,49.7,37.4,52.8,43.8,36.0,95,81,54,29.80,29.58,18,1,22,0.00
2014-4-9,66.2,53.0,38.0,45.0,40.4,36.2,94,67,35,29.98,29.80,8,0,11,0.00
2014-4-10,77.4,64.1,45.1,55.1,47.5,41.3,87,57,39,29.90,29.73,22,2,22,0.00
2014-4-11,76.4,66.8,56.1,58.4,54.2,48.2,90,65,47,29.91,29.78,14,2,17,0.00
2014-4-12,78.1,66.4,50.8,61.9,56.8,49.1,94,73,52,29.88,29.67,19,2,25,0.00
2014-4-13,76.8,71.6,65.6,64.7,61.7,58.8,90,72,60,29.72,29.46,28,5,32,0.30
2014-4-14,66.3,55.6,42.3,63.8,53.3,38.8,94,92,80,29.78,29.45,13,1,14,0.73
2014-4-15,48.9,42.1,33.8,39.5,28.6,20.8,90,61,38,30.03,29.78,15,2,16,0.00
2014-4-16,62.4,46.9,31.0,38.7,30.6,26.3,100,59,26,30.07,29.86,11,0,13,0.00
2014-4-17,69.7,54.5,36.7,48.8,42.5,34.9,94,68,39,30.07,29.94,16,1,16,0.00
2014-4-18,72.9,61.6,50.3,56.4,52.5,46.3,93,74,52,30.01,29.90,9,0,11,0.00
2014-4-19,77.9,63.3,47.2,56.5,48.6,44.3,95,65,31,29.98,29.86,11,0,11,0.00
2014-4-20,80.3,64.1,46.8,56.8,50.0,45.0,94,65,34,29.99,29.83,9,1,10,0.00
2014-4-21,80.8,67.2,54.4,65.1,57.9,51.8,94,74,45,29.87,29.68,11,0,11,0.03
2014-4-22,75.0,64.8,50.7,64.3,58.2,47.1,95,81,45,29.72,29.65,8,0,9,0.16
2014-4-23,76.2,61.9,45.6,49.9,44.5,35.5,94,59,24,29.82,29.67,8,0,10,0.00
2014-4-24,81.6,64.6,46.1,64.7,53.7,43.8,94,71,43,29.71,29.41,17,2,19,1.35
2014-4-25,74.8,64.3,51.2,63.5,51.4,40.9,94,67,31,29.76,29.51,9,1,12,0.01
2014-4-26,81.8,64.9,47.3,58.8,52.7,45.7,95,69,34,29.75,29.60,10,1,11,0.00
2014-4-27,71.2,67.4,64.4,68.8,63.9,56.8,95,89,66,29.60,29.36,16,3,19,1.86
2014-4-28,74.5,69.8,59.8,69.5,66.0,57.9,94,88,68,29.45,29.27,19,3,21,0.47
2014-4-29,71.2,60.6,53.0,59.0,53.5,48.1,95,80,46,29.57,29.38,10,1,13,0.06
2014-4-30,58.0,53.0,44.3,52.3,46.0,42.5,94,78,63,29.83,29.56,9,0,9,0.03
2014-5-1,66.6,54.4,41.1,49.8,43.4,39.5,95,70,39,29.83,29.74,9,0,11,0.01
2014-5-2,69.7,57.2,44.9,52.2,46.0,41.7,94,70,39,29.80,29.67,7,0,7,0.01
2014-5-3,78.9,62.8,45.0,55.8,48.6,43.2,94,66,30,29.79,29.72,7,0,9,0.00
2014-5-4,88.1,71.0,50.8,59.5,53.8,48.7,94,60,30,29.83,29.68,13,0,13,0.00
2014-5-5,84.3,73.5,57.8,58.8,54.2,50.0,89,54,31,29.74,29.59,14,1,14,0.00
2014-5-6,82.8,71.5,56.9,64.9,58.5,54.6,94,66,41,29.69,29.59,18,2,18,0.00
2014-5-7,82.3,73.7,63.6,65.2,62.5,59.4,89,69,53,29.77,29.64,18,3,19,0.00
2014-5-8,83.5,76.1,67.2,69.0,65.4,62.8,89,70,57,29.83,29.69,16,4,17,0.00
2014-5-9,75.6,70.2,65.8,67.2,65.1,63.6,94,84,69,29.76,29.63,14,3,14,0.13
2014-5-10,82.3,72.7,63.5,68.7,65.3,61.4,94,79,57,29.77,29.66,11,2,11,0.00
2014-5-11,85.7,76.6,66.8,74.0,69.6,64.7,94,80,60,29.78,29.67,16,3,16,0.00
2014-5-12,86.8,79.1,71.6,73.9,70.3,67.8,92,76,54,29.80,29.68,17,5,20,0.00
2014-5-13,83.6,73.0,62.1,72.1,67.7,60.4,96,84,63,29.87,29.72,14,2,15,0.04
2014-5-14,62.2,56.1,47.9,60.5,54.2,46.3,95,93,84,29.86,29.69,10,1,10,0.01
2014-5-15,67.2,55.8,47.0,52.7,48.5,45.1,95,79,52,29.95,29.83,7,0,7,0.67
2014-5-16,70.2,58.8,43.7,53.5,48.0,42.1,95,71,38,29.90,29.82,8,0,10,0.00
2014-5-17,62.1,55.9,51.2,57.4,52.4,45.8,94,88,70,29.95,29.84,9,1,9,0.76
2014-5-18,66.1,59.2,54.7,61.4,56.5,53.0,95,91,80,29.99,29.89,6,0,7,0.68
2014-5-19,81.1,69.5,55.0,68.7,61.4,53.3,95,77,54,29.94,29.79,11,1,13,0.00
2014-5-20,84.4,75.1,64.6,70.3,63.0,58.9,83,67,48,29.90,29.77,17,1,17,0.00
2014-5-21,85.5,76.5,68.9,69.2,64.4,60.6,86,67,45,29.90,29.77,13,0,15,0.00
2014-5-22,88.3,75.5,62.1,73.3,67.4,60.4,96,78,51,29.90,29.78,5,0,6,0.00
2014-5-23,86.9,74.1,61.8,72.0,65.7,60.1,94,78,46,29.87,29.77,4,0,7,0.00
2014-5-24,88.3,76.2,65.4,73.6,67.9,63.6,94,78,48,29.85,29.74,4,0,7,0.00
2014-5-25,86.3,75.3,67.1,73.2,68.2,65.0,94,80,53,29.85,29.77,10,0,10,0.00
2014-5-26,86.8,76.9,65.5,73.4,68.4,63.7,95,77,53,29.88,29.76,10,0,12,0.00
2014-5-27,83.6,73.7,67.9,74.7,68.9,66.0,95,86,65,29.82,29.68,7,0,11,0.86
2014-5-28,78.7,71.0,66.8,71.4,67.5,65.0,94,89,73,29.74,29.66,10,0,11,0.09
2014-5-29,76.0,71.5,68.0,71.3,68.5,66.2,95,90,79,29.72,29.65,12,1,14,0.17
2014-5-30,82.3,73.7,69.9,74.5,69.7,67.7,94,88,69,29.77,29.69,13,1,14,0.14
2014-5-31,85.2,75.9,67.7,73.4,69.4,65.9,95,82,61,29.82,29.71,15,1,17,0.01
2014-6-1,86.2,76.5,68.1,73.8,70.1,66.3,95,82,62,29.84,29.72,20,2,21,0.59
2014-6-2,84.0,75.9,70.8,75.9,72.0,69.0,94,88,68,29.86,29.75,11,2,13,0.14
2014-6-3,87.6,80.3,73.2,78.5,74.2,71.4,95,82,66,29.84,29.69,8,1,8,0.00
2014-6-4,85.9,79.2,71.7,77.1,73.9,69.9,95,84,70,29.75,29.54,12,1,17,0.01
2014-6-5,86.8,75.5,69.1,79.2,71.7,66.3,94,88,73,29.71,29.52,11,1,13,0.08
2014-6-6,88.5,74.8,68.5,79.8,71.3,66.7,95,90,70,29.72,29.57,10,0,10,1.06
2014-6-7,89.9,76.9,68.8,79.9,71.9,66.4,95,85,62,29.73,29.56,10,0,11,0.12
2014-6-8,82.2,73.8,67.2,71.1,68.3,65.4,95,84,65,29.80,29.60,8,0,10,1.52
2014-6-9,82.5,71.3,66.5,75.5,68.6,64.7,95,92,76,29.65,29.50,12,1,14,1.33
2014-6-10,76.2,70.2,68.2,70.2,67.9,66.7,95,93,79,29.58,29.47,11,2,14,0.36
2014-6-11,79.6,71.6,65.4,72.1,67.5,63.9,95,88,71,29.60,29.47,4,0,5,0.01
2014-6-12,85.7,72.6,63.1,74.5,67.7,61.6,95,86,58,29.69,29.58,8,0,15,0.41
2014-6-13,81.3,72.5,63.5,71.7,66.7,61.1,95,83,61,29.77,29.63,8,0,12,0.04
2014-6-14,84.3,71.5,59.0,69.8,62.3,57.4,95,75,47,29.84,29.70,8,0,9,0.00
2014-6-15,89.5,77.4,65.2,76.2,70.1,63.4,94,79,59,29.82,29.69,13,1,14,0.00
2014-6-16,88.3,78.9,69.8,76.3,72.5,68.0,95,82,61,29.90,29.78,11,1,14,0.00
2014-6-17,88.9,81.1,73.4,77.7,74.0,71.3,94,80,60,29.88,29.76,14,1,14,0.00
2014-6-18,89.4,80.9,72.9,78.6,74.8,71.3,95,83,62,29.84,29.76,11,0,11,0.00
2014-6-19,91.2,81.0,71.0,78.8,74.1,69.4,95,81,56,29.89,29.77,8,0,8,0.00
2014-6-20,92.8,81.9,72.9,79.8,74.7,71.2,95,80,56,29.85,29.72,6,0,6,0.00
2014-6-21,92.4,80.6,71.3,78.3,73.3,68.6,94,80,55,29.77,29.63,9,0,9,0.00
2014-6-22,92.4,79.3,71.8,79.1,73.5,69.5,95,84,55,29.72,29.60,11,0,13,0.00
2014-6-23,87.7,79.2,71.6,78.0,73.6,67.5,95,84,59,29.71,29.61,12,1,12,0.12
2014-6-24,81.6,75.1,70.9,77.0,72.6,69.4,95,92,82,29.76,29.66,13,1,13,0.57
2014-6-25,87.9,78.5,70.6,78.8,73.4,69.1,95,85,66,29.82,29.72,12,0,12,0.02
2014-6-26,82.5,75.8,69.9,75.1,72.1,68.4,95,89,73,29.82,29.71,9,1,10,0.01
2014-6-27,80.6,75.4,71.8,74.7,71.8,70.3,95,89,74,29.82,29.71,16,2,17,0.03
2014-6-28,84.6,74.9,70.3,77.7,72.1,68.8,95,91,75,29.88,29.77,16,2,16,1.14
2014-6-29,82.3,73.7,68.1,78.1,71.6,66.6,96,93,82,29.92,29.74,9,1,9,4.00
2014-6-30,89.2,82.1,74.3,81.0,76.6,72.7,95,84,66,29.79,29.63,13,1,13,0.00
2014-7-1,89.8,82.4,73.8,80.8,76.0,68.2,95,82,68,29.75,29.60,12,1,16,0.00
2014-7-2,87.6,76.2,67.1,78.1,71.6,65.6,95,86,61,29.82,29.68,6,0,8,0.17
2014-7-3,81.3,72.4,63.5,68.2,64.1,61.1,95,77,52,29.96,29.80,7,0,7,0.00
2014-7-4,81.4,70.4,59.0,66.2,61.8,57.6,95,76,50,30.02,29.95,9,0,9,0.00
2014-7-5,84.1,71.6,59.0,67.7,61.9,57.6,96,75,46,29.99,29.84,6,0,7,0.00
2014-7-6,86.0,73.8,60.7,72.3,66.2,59.3,95,79,50,29.88,29.73,9,0,9,0.00
2014-7-7,89.6,79.1,68.7,78.1,72.8,66.9,95,82,63,29.76,29.67,9,0,9,0.00
2014-7-8,88.9,80.9,72.8,80.8,75.6,70.0,95,84,72,29.78,29.64,14,0,14,0.55
2014-7-9,81.7,75.3,70.9,76.3,72.5,69.4,95,91,79,29.80,29.71,5,0,5,0.09
2014-7-10,87.7,76.8,67.5,76.0,70.4,66.0,95,82,56,29.86,29.77,5,0,6,0.00
2014-7-11,86.4,76.8,70.1,77.6,72.6,68.6,95,87,67,29.93,29.83,7,0,7,0.06
2014-7-12,90.3,80.5,70.3,78.8,73.9,68.8,95,82,58,29.94,29.80,7,0,8,0.00
2014-7-13,91.9,82.4,71.7,81.1,76.1,70.2,95,83,59,29.85,29.72,7,0,9,0.00
2014-7-14,93.3,80.8,72.5,81.6,75.5,70.4,95,85,63,29.74,29.58,15,0,16,0.43
2014-7-15,79.5,73.2,61.5,71.6,65.4,56.3,95,78,52,29.76,29.65,8,1,9,0.00
2014-7-16,79.4,68.5,57.7,64.2,59.6,56.3,95,75,48,29.82,29.74,5,0,9,0.00
2014-7-17,76.2,69.2,62.9,66.9,62.7,59.2,95,81,56,29.84,29.77,7,0,7,0.06
2014-7-18,68.7,65.8,63.6,66.0,63.9,62.1,95,94,89,29.83,29.71,10,0,10,0.50
2014-7-19,75.6,70.3,65.8,72.1,67.7,64.2,95,92,82,29.77,29.69,6,0,6,0.00
2014-7-20,82.5,73.6,65.0,74.6,69.2,63.5,95,87,67,29.81,29.74,4,0,5,0.00
2014-7-21,86.1,75.0,64.2,74.9,68.6,62.7,95,82,58,29.85,29.76,6,0,7,0.00
2014-7-22,89.6,78.0,66.1,78.9,72.0,64.5,95,83,61,29.84,29.76,5,0,7,0.00
2014-7-23,90.5,77.7,70.2,81.0,73.3,68.7,95,87,65,29.85,29.67,9,0,14,1.10
2014-7-24,82.5,73.9,64.4,74.0,66.1,58.3,95,79,46,29.80,29.72,8,0,9,0.00
2014-7-25,85.0,73.3,60.2,72.3,65.9,58.8,95,80,53,29.82,29.71,5,0,5,0.00
2014-7-26,91.5,79.5,66.8,81.7,74.0,65.3,95,84,67,29.78,29.69,9,0,10,0.00
2014-7-27,91.8,83.1,75.5,83.5,78.4,74.0,95,86,70,29.75,29.67,9,0,9,0.00
2014-7-28,83.6,77.9,68.2,77.9,67.5,63.9,95,72,53,29.83,29.69,10,0,10,0.00
2014-7-29,79.6,72.1,60.3,67.3,61.2,57.7,95,70,50,29.89,29.79,9,0,10,0.00
2014-7-30,81.8,70.3,57.9,69.1,62.4,56.5,95,78,47,29.88,29.80,7,0,9,0.00
2014-7-31,79.8,72.7,68.3,71.0,68.4,66.4,95,87,66,29.86,29.79,4,0,6,0.01
2014-8-1,84.0,75.0,69.0,71.9,68.4,64.6,95,81,53,29.82,29.74,7,0,9,0.02
2014-8-2,88.2,77.4,68.1,71.9,68.2,65.7,95,76,49,29.83,29.75,7,0,11,0.00
2014-8-3,88.7,77.9,69.4,74.3,68.8,65.4,93,75,52,29.85,29.75,8,0,9,0.00
2014-8-4,90.6,76.9,65.6,74.2,68.2,64.1,95,77,47,29.83,29.73,4,0,4,0.00
2014-8-5,90.2,77.7,66.0,76.0,70.0,64.5,95,79,46,29.84,29.75,4,0,4,0.00
2014-8-6,91.6,80.0,68.6,78.2,73.1,66.9,95,81,54,29.81,29.71,4,0,7,0.00
2014-8-7,90.4,77.5,70.4,80.4,73.0,68.9,95,87,67,29.74,29.64,10,0,10,0.00
2014-8-8,90.1,77.8,71.5,82.0,74.6,70.0,95,90,71,29.71,29.63,10,0,11,0.88
2014-8-9,87.0,78.8,74.6,80.6,75.9,72.8,95,91,77,29.76,29.66,4,0,7,0.29
2014-8-10,89.9,80.6,72.5,80.8,75.8,70.8,95,86,66,29.77,29.66,5,0,8,0.00
2014-8-11,86.3,79.0,73.5,80.2,75.0,72.0,95,88,72,29.71,29.62,8,0,9,0.01
2014-8-12,83.3,75.7,65.6,72.1,67.8,62.5,95,78,51,29.76,29.66,9,0,9,0.00
2014-8-13,82.1,71.6,61.4,66.8,61.7,58.6,95,74,47,29.86,29.75,8,0,9,0.00
2014-8-14,83.3,71.2,58.5,70.5,63.3,57.1,95,78,48,29.86,29.74,5,0,6,0.00
2014-8-15,85.5,73.1,60.5,71.5,65.3,59.1,95,79,51,29.83,29.72,7,0,7,0.00
2014-8-16,86.5,76.7,63.5,74.8,69.6,62.0,95,80,58,29.78,29.65,9,0,11,0.00
2014-8-17,88.8,80.7,75.6,80.3,74.7,70.4,91,82,67,29.71,29.59,15,1,15,0.00
2014-8-18,80.0,76.0,73.8,76.8,73.8,71.8,95,93,85,29.70,29.59,9,0,9,0.36
2014-8-19,88.4,79.8,69.6,80.6,74.8,68.1,95,85,67,29.70,29.58,7,0,8,0.03
2014-8-20,92.0,82.7,74.6,80.6,76.2,73.1,95,82,60,29.80,29.63,9,0,10,0.00
2014-8-21,91.9,82.0,73.1,81.3,76.1,71.6,95,83,63,29.86,29.76,10,0,10,0.00
2014-8-22,93.0,82.5,72.7,81.1,76.6,71.2,95,84,61,29.84,29.72,8,0,9,0.00
2014-8-23,94.9,83.1,73.3,81.5,76.5,71.8,95,82,57,29.77,29.64,9,0,9,0.00
2014-8-24,95.1,81.8,74.3,81.8,76.5,72.8,95,85,53,29.73,29.63,5,0,6,0.04
2014-8-25,92.8,81.8,73.2,82.1,75.5,71.7,95,83,58,29.76,29.68,8,1,10,0.00
2014-8-26,88.4,79.2,73.3,78.1,74.0,71.8,95,85,64,29.86,29.75,8,0,8,0.08
2014-8-27,89.5,76.9,68.8,75.1,70.7,67.3,95,83,51,29.85,29.74,9,0,10,0.01
2014-8-28,90.6,79.0,67.7,75.9,70.7,66.2,95,78,49,29.78,29.67,7,0,8,0.00
2014-8-29,90.5,79.4,69.4,77.9,72.0,67.9,95,80,53,29.75,29.65,12,1,13,0.00
2014-8-30,79.8,75.4,72.7,76.4,73.3,71.0,95,93,85,29.80,29.73,15,1,15,0.05
2014-8-31,85.1,77.2,73.0,78.4,74.3,71.5,96,91,76,29.82,29.71,18,1,18,0.58
2014-9-1,88.2,80.6,74.4,79.4,75.5,72.9,96,85,66,29.82,29.68,12,1,12,0.00
2014-9-2,88.9,78.7,73.7,80.5,75.0,72.0,95,89,72,29.81,29.64,11,0,11,0.00
2014-9-3,88.0,78.8,71.7,77.4,73.6,70.4,96,85,63,29.79,29.70,6,0,6,0.00
2014-9-4,90.8,79.2,70.5,79.1,73.8,69.0,96,85,59,29.84,29.75,7,0,8,0.00
2014-9-5,93.4,79.8,70.3,79.5,74.3,68.9,96,84,60,29.88,29.75,7,0,7,0.00
2014-9-6,90.2,76.0,71.5,80.0,73.0,68.6,95,91,68,29.82,29.75,9,0,9,0.61
2014-9-7,82.4,73.8,67.1,72.7,68.5,64.5,95,84,67,29.84,29.73,8,0,8,0.00
2014-9-8,84.6,74.7,67.4,73.5,68.8,65.8,96,83,58,29.83,29.72,9,0,9,0.00
2014-9-9,89.7,77.4,66.0,76.8,71.1,64.5,96,83,56,29.80,29.64,9,0,9,0.00
2014-9-10,89.1,81.4,75.4,78.4,75.1,73.0,94,82,64,29.66,29.57,17,3,17,0.00
2014-9-11,79.2,74.2,68.1,76.7,71.8,66.6,95,92,82,29.83,29.63,14,1,16,5.69
2014-9-12,68.2,65.2,61.8,66.7,62.9,58.9,95,92,89,29.93,29.81,8,0,10,0.00
2014-9-13,65.8,60.8,57.1,58.9,56.9,55.3,95,87,76,30.03,29.92,10,0,13,0.00
2014-9-14,75.6,65.5,56.3,64.5,59.2,54.3,96,82,59,30.01,29.89,6,0,6,0.00
2014-9-15,81.2,70.4,60.9,71.9,65.9,59.5,96,86,59,29.93,29.83,3,0,5,0.00
2014-9-16,76.1,70.7,65.8,70.5,67.7,63.3,96,90,81,29.88,29.77,6,0,6,0.00
2014-9-17,75.8,68.4,61.6,68.0,63.8,59.9,94,86,71,29.81,29.64,6,0,6,0.00
2014-9-18,83.0,72.3,65.7,73.5,68.0,64.2,95,87,69,29.75,29.64,8,0,9,0.00
2014-9-19,83.0,71.6,63.8,74.1,67.8,62.3,96,89,68,29.80,29.73,7,0,8,0.00
2014-9-20,86.5,74.5,65.9,74.9,69.6,64.4,96,86,62,29.84,29.71,11,1,13,0.00
2014-9-21,87.9,76.4,64.8,76.4,69.4,57.8,95,80,58,29.83,29.69,7,0,9,0.01
2014-9-22,74.4,67.2,58.4,59.0,55.6,52.5,85,67,51,29.97,29.83,9,0,9,0.00
2014-9-23,77.6,63.5,50.7,56.5,52.1,48.3,94,70,37,30.00,29.88,9,0,9,0.00
2014-9-24,80.5,66.9,54.8,67.2,59.8,52.5,95,80,53,30.02,29.92,11,1,11,0.00
2014-9-25,82.5,69.1,56.7,67.4,60.8,55.3,95,78,46,30.01,29.88,8,0,8,0.00
2014-9-26,83.4,69.2,58.1,68.6,61.9,56.7,95,80,48,29.92,29.83,7,0,8,0.00
2014-9-27,82.3,71.3,64.4,70.7,65.9,62.7,95,84,62,29.88,29.79,12,1,12,0.00
2014-9-28,82.8,70.0,60.0,70.5,64.1,58.6,95,83,57,29.88,29.76,9,0,9,0.00
2014-9-29,84.0,70.9,59.6,69.3,63.9,58.2,95,81,53,29.79,29.67,8,0,8,0.00
2014-9-30,85.7,70.0,58.7,70.8,63.6,57.3,95,82,49,29.71,29.60,6,0,6,0.01
2014-10-1,86.3,72.7,61.7,72.2,66.3,60.3,95,82,55,29.70,29.61,11,1,11,0.00
2014-10-2,86.0,75.0,67.3,76.4,70.6,64.3,94,87,69,29.71,29.54,19,2,21,0.18
2014-10-3,72.4,66.2,54.2,66.1,56.6,43.3,95,72,53,29.89,29.64,9,0,10,0.09
2014-10-4,64.8,53.4,42.9,48.0,42.3,34.1,95,70,32,29.89,29.74,9,0,9,0.00
2014-10-5,76.3,61.0,44.4,57.5,51.2,43.1,95,73,45,29.75,29.57,14,1,20,0.00
2014-10-6,75.4,66.3,59.3,66.6,60.9,53.1,95,83,68,29.69,29.60,11,1,11,0.17
2014-10-7,83.2,72.4,65.3,72.7,67.6,63.1,95,86,68,29.74,29.61,15,1,15,0.00
2014-10-8,79.0,71.4,65.7,75.0,69.0,64.2,95,92,85,29.86,29.73,4,0,5,0.00
2014-10-9,85.1,72.6,62.9,74.3,67.6,61.4,95,85,62,29.85,29.71,12,1,12,0.01
2014-10-10,83.6,73.1,66.2,73.9,68.6,64.4,95,87,66,29.76,29.61,8,0,12,0.24
2014-10-11,66.7,62.0,59.9,65.2,60.5,58.5,95,95,93,29.82,29.65,10,0,10,0.31
2014-10-12,76.2,68.2,60.7,71.8,65.9,59.3,95,93,84,29.78,29.62,16,1,16,0.07
2014-10-13,78.3,67.9,62.4,71.6,65.5,60.3,95,92,73,29.67,29.37,22,5,28,1.48
2014-10-14,63.8,59.6,56.7,60.6,57.0,55.2,96,91,77,29.64,29.39,11,1,11,0.16
2014-10-15,67.1,57.8,50.5,55.7,53.2,49.1,96,85,61,29.68,29.61,6,0,6,0.01
2014-10-16,71.9,57.0,44.9,56.5,50.1,43.6,95,80,45,29.75,29.64,7,0,7,0.00
2014-10-17,77.5,63.1,51.4,65.4,57.8,50.0,95,84,60,29.72,29.62,9,0,9,0.00
2014-10-18,68.3,59.1,49.8,56.1,51.6,47.8,95,78,52,29.93,29.72,8,0,8,0.00
2014-10-19,65.4,54.4,44.3,54.1,48.0,43.0,95,80,56,30.00,29.85,7,0,7,0.00
2014-10-20,69.1,55.5,43.3,58.5,50.7,42.0,95,85,59,29.88,29.75,5,0,5,0.01
2014-10-21,73.9,58.9,48.4,60.3,51.1,47.0,95,79,44,29.87,29.78,6,0,6,0.00
2014-10-22,65.8,55.5,48.1,50.1,47.6,45.5,95,77,50,30.02,29.86,7,0,10,0.00
2014-10-23,63.4,50.3,40.7,51.9,46.1,39.3,95,87,52,29.98,29.86,5,0,5,0.01
2014-10-24,71.2,56.1,42.0,59.7,50.9,40.6,95,84,55,29.93,29.82,5,0,5,0.00
2014-10-25,79.6,63.7,50.3,68.6,59.3,48.9,95,87,66,29.87,29.76,5,0,5,0.00
2014-10-26,83.6,67.8,57.3,71.7,63.2,55.9,95,86,59,29.80,29.67,11,0,11,0.01
2014-10-27,80.3,70.3,60.9,64.0,61.5,57.3,95,76,49,29.75,29.65,18,2,18,0.00
2014-10-28,72.2,64.7,54.8,68.2,62.4,53.3,95,92,82,29.87,29.71,8,1,8,0.74
2014-10-29,68.3,55.6,45.8,54.4,49.1,43.9,95,81,45,29.96,29.84,8,0,8,0.03
2014-10-30,66.8,52.6,39.3,52.6,45.2,38.0,95,79,43,29.94,29.75,7,0,7,0.00
2014-10-31,56.6,49.6,40.4,51.5,40.8,25.4,95,74,39,30.08,29.73,18,1,18,0.00
2014-11-1,49.3,40.3,31.6,34.5,29.4,26.0,93,66,46,30.18,30.07,9,0,9,0.00
2014-11-2,58.3,41.6,27.9,39.5,32.5,26.4,95,74,34,30.25,30.09,9,0,9,0.00
2014-11-3,66.5,50.5,37.9,43.2,39.1,35.8,93,69,35,30.16,30.00,7,1,12,0.00
2014-11-4,73.3,61.2,47.4,60.2,53.5,42.0,94,77,58,30.00,29.85,15,2,15,0.07
2014-11-5,58.4,56.7,55.0,57.0,55.3,53.6,95,95,95,29.97,29.90,6,0,6,1.47
2014-11-6,62.9,54.6,39.5,53.6,45.1,36.1,95,73,42,30.04,29.90,12,1,12,0.00
2014-11-7,54.9,43.6,34.0,40.1,35.7,31.3,94,77,41,30.03,29.79,7,0,7,0.00
2014-11-8,57.4,46.2,36.1,47.6,41.2,34.5,95,84,62,29.86,29.75,6,0,6,0.00
2014-11-9,59.0,45.2,32.7,45.9,39.2,31.4,100,82,53,29.89,29.72,9,0,9,0.00
2014-11-10,71.0,55.5,38.8,52.7,44.7,37.2,95,70,42,29.72,29.52,24,3,24,0.01
2014-11-11,65.1,53.0,39.6,61.7,48.6,32.8,94,86,63,29.94,29.60,13,1,13,0.05
2014-11-12,42.1,36.5,33.8,32.7,29.6,26.8,84,76,66,30.11,29.94,14,0,14,0.00
2014-11-13,35.2,31.8,25.3,27.3,20.9,16.1,83,65,46,30.21,30.10,9,0,12,0.03
2014-11-14,36.9,29.6,24.4,21.7,19.6,17.5,83,67,47,30.24,30.13,5,0,8,0.00
2014-11-15,45.7,36.7,24.4,34.3,23.6,19.6,85,61,36,30.15,29.93,11,0,11,0.00
2014-11-16,42.9,39.3,36.4,41.6,37.5,34.1,95,93,77,29.98,29.68,12,0,12,0.62
2014-11-17,36.4,31.4,25.6,34.7,24.1,12.5,94,75,56,30.13,29.72,17,1,17,0.11
2014-11-18,36.2,27.5,16.8,22.4,17.3,12.3,90,67,47,30.25,30.09,8,0,8,0.00
2014-11-19,53.2,41.3,28.1,36.3,30.5,21.9,87,67,46,30.10,29.88,11,1,18,0.00
2014-11-20,55.4,42.5,29.8,35.7,31.9,27.5,94,69,40,30.06,29.94,7,0,7,0.00
2014-11-21,56.4,47.8,40.8,49.3,41.7,31.8,96,80,62,30.12,30.01,7,0,7,0.08
2014-11-22,64.5,57.9,52.1,52.1,47.0,43.4,88,68,48,30.05,29.69,17,3,17,0.01
2014-11-23,62.5,60.1,58.0,60.9,57.5,52.1,95,91,78,29.69,29.08,26,3,26,0.55
2014-11-24,62.6,50.0,34.6,58.0,41.4,32.6,93,74,50,29.84,29.19,15,1,15,0.00
2014-11-25,48.2,37.5,28.1,35.2,28.9,23.9,94,74,41,30.01,29.84,7,0,7,0.00
2014-11-26,50.8,37.8,26.1,41.9,31.9,24.4,94,81,54,29.97,29.72,14,1,14,0.01
2014-11-27,44.9,38.6,28.7,32.7,30.5,26.7,93,73,60,30.26,29.97,13,0,13,0.00
2014-11-28,53.9,41.5,27.8,32.1,29.5,25.8,93,66,39,30.22,29.85,15,2,15,0.00
2014-11-29,67.1,59.1,46.3,57.8,51.3,31.9,88,76,57,29.85,29.69,23,3,23,0.00
2014-11-30,72.8,66.8,62.0,61.4,58.8,55.9,87,76,66,29.94,29.74,26,2,26,0.00
2014-12-1,64.5,45.9,36.7,57.7,43.3,35.1,95,91,75,30.18,29.94,13,1,13,0.41
2014-12-2,39.1,37.5,34.9,37.8,36.0,33.5,95,94,93,30.12,30.02,7,0,7,0.01
2014-12-3,49.7,44.7,38.8,45.6,42.5,37.5,95,92,84,30.11,30.01,7,0,7,0.07
2014-12-4,63.2,53.6,46.3,58.3,51.2,44.9,99,92,82,30.03,29.94,6,0,6,0.00
2014-12-5,65.7,60.6,53.1,64.1,59.1,51.7,95,95,94,29.95,29.80,10,1,10,1.10
2014-12-6,65.7,51.8,43.4,64.1,48.5,38.6,95,89,82,30.24,29.80,18,2,18,0.03
2014-12-7,47.6,43.5,40.0,39.0,37.8,36.2,92,80,71,30.25,30.05,9,0,9,0.00
2014-12-8,56.7,44.4,34.5,43.5,39.2,33.0,98,83,55,30.08,29.96,7,0,7,0.00
2014-12-9,49.5,39.0,31.5,44.9,34.2,29.3,95,84,68,30.10,29.97,15,1,15,0.01
2014-12-10,45.0,36.9,28.5,36.1,32.3,26.8,95,84,67,30.13,30.00,9,0,9,0.00
2014-12-11,44.4,39.2,29.9,35.4,32.6,28.1,94,78,65,30.11,30.00,7,0,7,0.00
2014-12-12,57.5,48.0,40.5,44.3,39.6,35.2,88,73,59,30.18,30.06,6,0,7,0.00
2014-12-13,54.9,49.9,43.7,43.7,40.4,38.0,89,70,60,30.11,29.97,4,0,5,0.00
2014-12-14,64.8,52.2,38.9,52.7,46.6,37.1,94,82,63,29.97,29.78,9,1,9,0.00
2014-12-15,61.0,53.3,47.7,59.1,50.5,41.7,95,90,70,29.78,29.53,16,3,16,0.29
2014-12-16,49.9,45.3,33.4,42.0,36.9,30.3,89,73,63,30.06,29.69,12,1,12,0.00
2014-12-17,44.4,37.5,30.3,37.6,32.8,28.4,94,84,72,30.11,29.99,7,0,7,0.00
2014-12-18,45.8,41.9,37.7,39.7,37.5,33.5,93,85,74,30.06,29.93,6,0,6,0.04
2014-12-19,43.8,42.2,36.5,39.7,37.5,33.3,88,83,78,30.04,29.95,7,0,7,0.00
2014-12-20,50.2,39.9,30.9,38.1,34.3,29.3,95,82,62,30.05,29.97,7,0,7,0.00
2014-12-21,56.4,41.7,27.6,43.0,34.4,26.1,95,78,49,30.00,29.68,10,0,10,0.01
2014-12-22,57.6,53.0,45.3,55.4,51.0,42.5,95,93,88,29.68,29.37,11,3,19,0.09
2014-12-23,55.1,51.3,48.5,53.7,49.1,44.9,95,92,86,29.50,29.38,6,0,10,0.04
2014-12-24,48.6,44.2,40.6,45.5,40.8,37.2,94,88,76,29.77,29.40,8,0,8,0.02
2014-12-25,54.0,43.5,31.0,40.1,36.2,29.4,95,77,50,29.97,29.77,20,1,20,0.01
2014-12-26,54.2,46.7,36.9,46.8,40.6,34.3,92,80,57,30.02,29.89,13,2,13,0.00
2014-12-27,54.8,53.0,48.2,53.4,50.3,46.8,95,91,82,29.92,29.77,14,1,14,0.40
2014-12-28,48.3,40.2,37.9,46.8,38.6,36.3,95,94,92,29.99,29.86,9,0,9,0.12
2014-12-29,38.3,37.3,36.5,36.8,34.6,31.8,95,90,83,30.09,29.92,9,0,9,0.01
2014-12-30,42.4,36.3,30.9,31.9,28.9,25.0,89,75,57,30.33,30.08,15,1,15,0.01
2014-12-31,37.4,32.2,26.9,25.1,23.6,22.1,83,71,58,30.37,30.20,9,0,9,0.00
2015-1-1,40.9,36.7,33.7,36.4,30.0,23.5,94,77,54,30.20,30.01,6,0,6,0.12
2015-1-2,49.9,43.5,38.1,48.5,42.2,36.5,95,95,94,30.07,29.80,7,0,7,0.06